createdAt,value
2019-03-23T00:27:26.161Z,56.72
2019-03-23T00:27:26.724Z,56.72
2019-03-23T00:27:27.325Z,56.82
2019-03-23T00:27:27.925Z,56.82
2019-03-23T00:27:28.523Z,56.63
2019-03-23T00:27:29.123Z,56.82
2019-03-23T00:27:29.725Z,56.72
2019-03-23T00:27:30.324Z,56.82
2019-03-23T00:28:23.807Z,56.82
2019-03-23T00:28:24.378Z,56.82
2019-03-23T00:28:24.977Z,56.82
2019-03-23T00:28:25.577Z,56.53
2019-03-23T00:28:26.176Z,56.63
2019-03-23T00:28:26.775Z,56.72
2019-03-23T00:28:27.375Z,56.82
2019-03-23T00:28:27.975Z,56.72
2019-03-23T00:29:21.433Z,56.82
2019-03-23T00:29:22.030Z,57.01
2019-03-23T00:29:22.632Z,56.92
2019-03-23T00:29:23.229Z,57.01
2019-03-23T00:29:23.830Z,56.92
2019-03-23T00:29:24.429Z,56.92
2019-03-23T00:29:25.028Z,57.01
2019-03-23T00:29:25.629Z,56.92
2019-03-23T00:30:20.109Z,56.92
2019-03-23T00:30:20.704Z,56.92
2019-03-23T00:30:21.303Z,56.92
2019-03-23T00:30:21.908Z,57.01
2019-03-23T00:30:22.502Z,57.01
2019-03-23T00:30:23.102Z,57.01
2019-03-23T00:30:23.703Z,56.92
2019-03-23T00:30:24.301Z,57.01
2019-03-23T00:31:17.761Z,56.44
2019-03-23T00:31:18.359Z,56.82
2019-03-23T00:31:18.958Z,57.10
2019-03-23T00:31:19.557Z,57.20
2019-03-23T00:31:20.157Z,56.92
2019-03-23T00:31:20.759Z,57.20
2019-03-23T00:31:21.358Z,56.92
2019-03-23T00:31:21.957Z,56.34
2019-03-23T00:32:16.437Z,56.44
2019-03-23T00:32:17.033Z,56.44
2019-03-23T00:32:17.633Z,56.44
2019-03-23T00:32:18.233Z,56.44
2019-03-23T00:32:18.835Z,56.72
2019-03-23T00:32:19.433Z,56.44
2019-03-23T00:32:20.032Z,56.63
2019-03-23T00:32:20.634Z,56.82
2019-03-23T00:33:15.139Z,56.44
2019-03-23T00:33:15.709Z,56.34
2019-03-23T00:33:16.310Z,56.24
2019-03-23T00:33:16.909Z,56.24
2019-03-23T00:33:17.509Z,56.63
2019-03-23T00:33:18.109Z,56.34
2019-03-23T00:33:18.709Z,56.63
2019-03-23T00:33:19.309Z,56.44
2019-03-23T00:34:13.790Z,56.72
2019-03-23T00:34:14.385Z,56.82
2019-03-23T00:34:14.985Z,57.20
2019-03-23T00:34:15.586Z,56.92
2019-03-23T00:34:16.185Z,56.53
2019-03-23T00:34:16.784Z,56.82
2019-03-23T00:34:17.392Z,56.92
2019-03-23T00:34:17.985Z,56.44
2019-03-23T00:35:12.465Z,56.92
2019-03-23T00:35:13.061Z,56.82
2019-03-23T00:35:13.661Z,57.01
2019-03-23T00:35:14.261Z,56.92
2019-03-23T00:35:14.861Z,56.92
2019-03-23T00:35:15.461Z,56.92
2019-03-23T00:35:16.061Z,56.82
2019-03-23T00:35:16.660Z,57.01
2019-03-23T00:36:11.142Z,56.72
2019-03-23T00:36:11.742Z,56.82
2019-03-23T00:36:12.337Z,56.82
2019-03-23T00:36:12.993Z,56.72
2019-03-23T00:36:13.536Z,56.82
2019-03-23T00:36:14.134Z,56.63
2019-03-23T00:36:14.734Z,56.63
2019-03-23T00:36:15.339Z,56.72
2019-03-23T00:37:09.817Z,56.82
2019-03-23T00:37:10.414Z,56.72
2019-03-23T00:37:11.013Z,56.72
2019-03-23T00:37:11.613Z,56.63
2019-03-23T00:37:12.212Z,56.63
2019-03-23T00:37:12.813Z,56.92
2019-03-23T00:37:13.413Z,56.63
2019-03-23T00:37:14.011Z,56.72
2019-03-23T00:38:08.576Z,57.01
2019-03-23T00:38:09.090Z,57.01
2019-03-23T00:38:09.692Z,57.01
2019-03-23T00:38:10.289Z,57.01
2019-03-23T00:38:10.890Z,57.01
2019-03-23T00:38:11.488Z,56.92
2019-03-23T00:38:12.089Z,57.01
2019-03-23T00:38:12.689Z,56.92
2019-03-23T00:39:07.169Z,56.72
2019-03-23T00:39:07.764Z,57.10
2019-03-23T00:39:08.367Z,56.53
2019-03-23T00:39:08.964Z,57.10
2019-03-23T00:39:09.563Z,57.10
2019-03-23T00:39:10.165Z,56.92
2019-03-23T00:39:10.764Z,56.92
2019-03-23T00:39:11.364Z,57.01
2019-03-23T00:40:05.845Z,56.92
2019-03-23T00:40:06.443Z,57.01
2019-03-23T00:40:07.042Z,56.92
2019-03-23T00:40:07.640Z,57.01
2019-03-23T00:40:08.243Z,57.01
2019-03-23T00:40:08.841Z,57.01
2019-03-23T00:40:09.440Z,56.92
2019-03-23T00:40:10.043Z,57.01
2019-03-23T00:41:04.520Z,56.72
2019-03-23T00:41:05.120Z,57.01
2019-03-23T00:41:05.717Z,56.92
2019-03-23T00:41:06.319Z,57.01
2019-03-23T00:41:06.917Z,56.92
2019-03-23T00:41:07.520Z,57.01
2019-03-23T00:41:08.118Z,56.92
2019-03-23T00:41:08.719Z,57.01
2019-03-23T00:42:02.175Z,56.92
2019-03-23T00:42:02.769Z,56.63
2019-03-23T00:42:03.368Z,56.72
2019-03-23T00:42:03.969Z,56.63
2019-03-23T00:42:04.570Z,56.72
2019-03-23T00:42:05.168Z,56.72
2019-03-23T00:42:05.768Z,56.72
2019-03-23T00:42:06.368Z,56.63
2019-03-23T00:43:00.848Z,57.01
2019-03-23T00:43:01.448Z,57.10
2019-03-23T00:43:02.046Z,57.10
2019-03-23T00:43:02.644Z,57.01
2019-03-23T00:43:03.252Z,57.10
2019-03-23T00:43:03.850Z,57.01
2019-03-23T00:43:04.447Z,57.10
2019-03-23T00:43:05.044Z,57.01
2019-03-23T00:43:59.547Z,57.39
2019-03-23T00:44:00.121Z,57.10
2019-03-23T00:44:00.719Z,57.58
2019-03-23T00:44:01.321Z,57.58
2019-03-23T00:44:01.922Z,57.39
2019-03-23T00:44:02.521Z,57.20
2019-03-23T00:44:03.118Z,57.39
2019-03-23T00:44:03.720Z,57.39
2019-03-23T00:44:57.175Z,57.67
2019-03-23T00:44:57.774Z,57.74
2019-03-23T00:44:58.375Z,57.87
2019-03-23T00:44:58.972Z,57.77
2019-03-23T00:44:59.573Z,57.58
2019-03-23T00:45:00.337Z,57.67
2019-03-23T00:45:00.772Z,57.67
2019-03-23T00:45:01.377Z,57.77
2019-03-23T00:45:54.829Z,57.58
2019-03-23T00:45:55.425Z,57.93
2019-03-23T00:45:56.025Z,57.48
2019-03-23T00:45:56.625Z,57.36
2019-03-23T00:45:57.225Z,57.84
2019-03-23T00:45:57.824Z,57.48
2019-03-23T00:45:58.424Z,57.55
2019-03-23T00:45:59.027Z,57.48
2019-03-23T00:46:53.506Z,58.03
2019-03-23T00:46:54.101Z,57.74
2019-03-23T00:46:54.701Z,58.12
2019-03-23T00:46:55.301Z,57.65
2019-03-23T00:46:55.903Z,58.03
2019-03-23T00:46:56.500Z,58.06
2019-03-23T00:46:57.101Z,58.03
2019-03-23T00:46:57.700Z,57.84
2019-03-23T00:47:52.177Z,58.50
2019-03-23T00:47:52.776Z,58.40
2019-03-23T00:47:53.375Z,58.40
2019-03-23T00:47:53.974Z,58.69
2019-03-23T00:47:54.576Z,58.31
2019-03-23T00:47:55.177Z,58.40
2019-03-23T00:47:55.774Z,58.59
2019-03-23T00:47:56.374Z,58.50
2019-03-23T00:48:50.877Z,58.40
2019-03-23T00:48:51.452Z,58.50
2019-03-23T00:48:52.052Z,58.40
2019-03-23T00:48:52.652Z,58.40
2019-03-23T00:48:53.252Z,58.40
2019-03-23T00:48:53.850Z,58.40
2019-03-23T00:48:54.453Z,58.40
2019-03-23T00:48:55.049Z,58.69
2019-03-23T00:49:48.506Z,58.50
2019-03-23T00:49:49.105Z,58.22
2019-03-23T00:49:49.703Z,58.69
2019-03-23T00:49:50.304Z,58.50
2019-03-23T00:49:50.903Z,58.40
2019-03-23T00:49:51.503Z,58.40
2019-03-23T00:49:52.102Z,58.50
2019-03-23T00:49:52.704Z,58.69
2019-03-23T00:50:46.158Z,58.40
2019-03-23T00:50:46.758Z,58.31
2019-03-23T00:50:47.356Z,58.31
2019-03-23T00:50:47.956Z,58.22
2019-03-23T00:50:48.556Z,58.22
2019-03-23T00:50:49.156Z,58.79
2019-03-23T00:50:49.757Z,58.40
2019-03-23T00:50:50.357Z,58.31
2019-03-23T00:51:44.835Z,58.50
2019-03-23T00:51:45.432Z,58.59
2019-03-23T00:51:46.033Z,58.59
2019-03-23T00:51:46.629Z,58.50
2019-03-23T00:51:47.232Z,58.31
2019-03-23T00:51:47.829Z,58.59
2019-03-23T00:51:48.430Z,58.31
2019-03-23T00:51:49.031Z,58.50
2019-03-23T00:52:42.488Z,58.40
2019-03-23T00:52:43.083Z,58.50
2019-03-23T00:52:43.683Z,58.50
2019-03-23T00:52:44.281Z,58.50
2019-03-23T00:52:44.884Z,58.59
2019-03-23T00:52:45.482Z,58.59
2019-03-23T00:52:46.113Z,58.40
2019-03-23T00:52:46.682Z,58.50
2019-03-23T00:53:40.171Z,58.37
2019-03-23T00:53:40.733Z,58.40
2019-03-23T00:53:41.334Z,58.37
2019-03-23T00:53:41.935Z,58.18
2019-03-23T00:53:42.534Z,57.84
2019-03-23T00:53:43.135Z,58.28
2019-03-23T00:53:43.734Z,57.81
2019-03-23T00:53:44.336Z,58.37
2019-03-23T00:54:38.815Z,57.52
2019-03-23T00:54:39.410Z,57.71
2019-03-23T00:54:40.010Z,57.52
2019-03-23T00:54:40.609Z,57.81
2019-03-23T00:54:41.211Z,57.81
2019-03-23T00:54:41.812Z,57.81
2019-03-23T00:54:42.410Z,57.74
2019-03-23T00:54:43.008Z,57.81
2019-03-23T00:55:36.468Z,57.33
2019-03-23T00:55:37.062Z,57.62
2019-03-23T00:55:37.661Z,57.43
2019-03-23T00:55:38.260Z,57.43
2019-03-23T00:55:38.861Z,57.33
2019-03-23T00:55:39.462Z,57.33
2019-03-23T00:55:40.059Z,57.43
2019-03-23T00:55:40.661Z,57.43
2019-03-23T00:56:34.116Z,57.33
2019-03-23T00:56:34.712Z,57.62
2019-03-23T00:56:35.317Z,57.81
2019-03-23T00:56:35.915Z,57.62
2019-03-23T00:56:36.514Z,57.62
2019-03-23T00:56:37.114Z,57.62
2019-03-23T00:56:37.712Z,57.81
2019-03-23T00:56:38.313Z,57.71
2019-03-23T00:57:32.792Z,57.71
2019-03-23T00:57:33.390Z,57.52
2019-03-23T00:57:33.988Z,57.71
2019-03-23T00:57:34.588Z,57.62
2019-03-23T00:57:35.189Z,57.62
2019-03-23T00:57:35.789Z,57.81
2019-03-23T00:57:36.390Z,57.90
2019-03-23T00:57:36.988Z,57.62
2019-03-23T00:58:31.467Z,57.62
2019-03-23T00:58:32.064Z,57.62
2019-03-23T00:58:32.679Z,57.71
2019-03-23T00:58:33.264Z,57.24
2019-03-23T00:58:33.866Z,57.71
2019-03-23T00:58:34.462Z,57.81
2019-03-23T00:58:35.064Z,57.62
2019-03-23T00:58:35.662Z,57.62
2019-03-23T00:59:29.147Z,57.81
2019-03-23T00:59:29.718Z,57.52
2019-03-23T00:59:30.316Z,57.62
2019-03-23T00:59:30.916Z,57.81
2019-03-23T00:59:31.515Z,57.81
2019-03-23T00:59:32.116Z,57.81
2019-03-23T00:59:32.715Z,57.52
2019-03-23T00:59:33.315Z,57.33
2019-03-23T01:00:26.783Z,57.43
2019-03-23T01:00:27.370Z,57.71
2019-03-23T01:00:27.968Z,57.81
2019-03-23T01:00:28.568Z,57.24
2019-03-23T01:00:29.168Z,57.43
2019-03-23T01:00:29.769Z,57.62
2019-03-23T01:00:30.367Z,57.24
2019-03-23T01:00:30.966Z,58.00
2019-03-23T01:01:25.447Z,57.71
2019-03-23T01:01:26.043Z,57.71
2019-03-23T01:01:26.644Z,57.62
2019-03-23T01:01:27.243Z,57.71
2019-03-23T01:01:27.849Z,57.81
2019-03-23T01:01:28.441Z,57.81
2019-03-23T01:01:29.042Z,57.81
2019-03-23T01:01:29.642Z,57.81
2019-03-23T01:02:24.123Z,57.71
2019-03-23T01:02:24.726Z,57.81
2019-03-23T01:02:25.319Z,57.52
2019-03-23T01:02:25.919Z,57.71
2019-03-23T01:02:26.519Z,57.52
2019-03-23T01:02:27.123Z,57.71
2019-03-23T01:02:27.719Z,57.81
2019-03-23T01:02:28.319Z,57.71
2019-03-23T01:03:21.777Z,57.71
2019-03-23T01:03:22.372Z,57.71
2019-03-23T01:03:22.975Z,57.81
2019-03-23T01:03:23.572Z,57.62
2019-03-23T01:03:24.172Z,57.71
2019-03-23T01:03:24.772Z,57.71
2019-03-23T01:03:25.370Z,57.71
2019-03-23T01:03:25.973Z,57.81
2019-03-23T01:04:19.453Z,57.62
2019-03-23T01:04:20.024Z,57.81
2019-03-23T01:04:20.624Z,57.71
2019-03-23T01:04:21.224Z,57.90
2019-03-23T01:04:21.823Z,57.71
2019-03-23T01:04:22.423Z,57.52
2019-03-23T01:04:23.025Z,57.52
2019-03-23T01:04:23.626Z,57.71
2019-03-23T01:05:17.082Z,57.71
2019-03-23T01:05:17.673Z,57.71
2019-03-23T01:05:18.275Z,57.71
2019-03-23T01:05:18.874Z,57.52
2019-03-23T01:05:19.473Z,57.71
2019-03-23T01:05:20.075Z,57.71
2019-03-23T01:05:20.675Z,57.81
2019-03-23T01:05:21.273Z,57.52
2019-03-23T01:06:15.754Z,57.71
2019-03-23T01:06:16.350Z,57.71
2019-03-23T01:06:16.951Z,57.71
2019-03-23T01:06:17.558Z,57.71
2019-03-23T01:06:18.150Z,58.00
2019-03-23T01:06:18.750Z,57.71
2019-03-23T01:06:19.350Z,57.90
2019-03-23T01:06:19.949Z,57.81
2019-03-23T01:07:13.406Z,57.62
2019-03-23T01:07:14.002Z,57.62
2019-03-23T01:07:14.607Z,57.90
2019-03-23T01:07:15.203Z,57.71
2019-03-23T01:07:15.801Z,57.71
2019-03-23T01:07:16.403Z,57.71
2019-03-23T01:07:17.002Z,57.71
2019-03-23T01:07:17.604Z,57.71
2019-03-23T01:08:11.058Z,57.90
2019-03-23T01:08:11.653Z,57.52
2019-03-23T01:08:12.255Z,57.81
2019-03-23T01:08:12.853Z,57.71
2019-03-23T01:08:13.458Z,57.81
2019-03-23T01:08:14.054Z,57.90
2019-03-23T01:08:14.654Z,57.71
2019-03-23T01:08:15.252Z,57.62
2019-03-23T01:09:08.744Z,58.28
2019-03-23T01:09:09.307Z,58.09
2019-03-23T01:09:09.906Z,58.18
2019-03-23T01:09:10.506Z,57.81
2019-03-23T01:09:11.105Z,58.28
2019-03-23T01:09:11.709Z,58.28
2019-03-23T01:09:12.306Z,58.09
2019-03-23T01:09:12.906Z,58.28
2019-03-23T01:10:07.384Z,58.28
2019-03-23T01:10:07.980Z,58.28
2019-03-23T01:10:08.580Z,58.37
2019-03-23T01:10:09.183Z,58.57
2019-03-23T01:10:09.781Z,58.47
2019-03-23T01:10:10.382Z,58.47
2019-03-23T01:10:10.983Z,58.57
2019-03-23T01:10:11.580Z,58.47
2019-03-23T01:11:06.061Z,58.47
2019-03-23T01:11:06.657Z,58.57
2019-03-23T01:11:07.256Z,58.37
2019-03-23T01:11:07.857Z,58.47
2019-03-23T01:11:08.456Z,58.28
2019-03-23T01:11:09.056Z,58.37
2019-03-23T01:11:09.657Z,58.47
2019-03-23T01:11:10.255Z,58.28
2019-03-23T01:12:03.712Z,58.28
2019-03-23T01:12:04.310Z,58.28
2019-03-23T01:12:04.908Z,58.28
2019-03-23T01:12:05.509Z,58.28
2019-03-23T01:12:06.112Z,58.47
2019-03-23T01:12:06.710Z,58.28
2019-03-23T01:12:07.308Z,58.28
2019-03-23T01:12:07.910Z,58.18
2019-03-23T01:13:02.388Z,58.66
2019-03-23T01:13:02.985Z,58.66
2019-03-23T01:13:03.584Z,58.47
2019-03-23T01:13:04.188Z,58.66
2019-03-23T01:13:04.785Z,58.57
2019-03-23T01:13:05.385Z,58.28
2019-03-23T01:13:05.984Z,58.28
2019-03-23T01:13:06.583Z,58.37
2019-03-23T01:14:00.045Z,58.28
2019-03-23T01:14:00.638Z,58.57
2019-03-23T01:14:01.238Z,58.47
2019-03-23T01:14:01.837Z,58.28
2019-03-23T01:14:02.438Z,58.47
2019-03-23T01:14:03.038Z,58.57
2019-03-23T01:14:03.635Z,58.47
2019-03-23T01:14:04.235Z,58.47
2019-03-23T01:14:58.747Z,58.47
2019-03-23T01:14:59.319Z,58.18
2019-03-23T01:14:59.910Z,58.00
2019-03-23T01:15:00.511Z,58.66
2019-03-23T01:15:01.167Z,58.09
2019-03-23T01:15:01.716Z,58.76
2019-03-23T01:15:02.312Z,58.09
2019-03-23T01:15:02.910Z,58.76
2019-03-23T01:15:56.368Z,58.00
2019-03-23T01:15:56.964Z,58.09
2019-03-23T01:15:57.565Z,58.09
2019-03-23T01:15:58.163Z,58.09
2019-03-23T01:15:58.764Z,58.09
2019-03-23T01:15:59.373Z,58.09
2019-03-23T01:15:59.965Z,57.90
2019-03-23T01:16:00.563Z,58.00
2019-03-23T01:16:55.042Z,58.18
2019-03-23T01:16:55.639Z,58.18
2019-03-23T01:16:56.239Z,58.18
2019-03-23T01:16:56.842Z,58.28
2019-03-23T01:16:57.439Z,58.00
2019-03-23T01:16:58.039Z,58.18
2019-03-23T01:16:58.637Z,58.09
2019-03-23T01:16:59.241Z,58.28
2019-03-23T01:17:53.718Z,58.09
2019-03-23T01:17:54.314Z,58.28
2019-03-23T01:17:54.920Z,58.18
2019-03-23T01:17:55.516Z,58.18
2019-03-23T01:17:56.113Z,58.09
2019-03-23T01:17:56.711Z,58.09
2019-03-23T01:17:57.312Z,58.18
2019-03-23T01:17:57.913Z,58.28
2019-03-23T01:18:51.370Z,58.09
2019-03-23T01:18:51.968Z,58.28
2019-03-23T01:18:52.569Z,58.09
2019-03-23T01:18:53.166Z,58.09
2019-03-23T01:18:53.767Z,58.00
2019-03-23T01:18:54.367Z,58.28
2019-03-23T01:18:54.967Z,58.18
2019-03-23T01:18:55.566Z,58.28
2019-03-23T01:19:50.044Z,58.18
2019-03-23T01:19:50.642Z,58.00
2019-03-23T01:19:51.241Z,58.18
2019-03-23T01:19:51.842Z,58.09
2019-03-23T01:19:52.442Z,58.00
2019-03-23T01:19:53.042Z,58.00
2019-03-23T01:19:53.641Z,58.18
2019-03-23T01:19:54.241Z,58.09
2019-03-23T01:20:49.826Z,58.09
2019-03-23T01:20:50.089Z,58.18
2019-03-23T01:20:50.141Z,58.09
2019-03-23T01:20:50.517Z,58.00
2019-03-23T01:20:51.119Z,58.09
2019-03-23T01:20:51.719Z,58.09
2019-03-23T01:20:52.316Z,58.09
2019-03-23T01:20:52.916Z,57.90
2019-03-23T01:21:47.397Z,58.09
2019-03-23T01:21:47.993Z,58.18
2019-03-23T01:21:48.592Z,58.18
2019-03-23T01:21:49.196Z,58.28
2019-03-23T01:21:49.793Z,58.09
2019-03-23T01:21:50.394Z,57.81
2019-03-23T01:21:50.994Z,58.18
2019-03-23T01:21:51.592Z,58.28
2019-03-23T01:22:45.051Z,58.09
2019-03-23T01:22:45.647Z,58.28
2019-03-23T01:22:46.246Z,58.18
2019-03-23T01:22:46.846Z,58.09
2019-03-23T01:22:47.446Z,58.09
2019-03-23T01:22:48.046Z,58.37
2019-03-23T01:22:48.645Z,58.28
2019-03-23T01:22:49.245Z,58.28
2019-03-23T01:23:43.727Z,58.57
2019-03-23T01:23:44.321Z,58.57
2019-03-23T01:23:44.920Z,57.90
2019-03-23T01:23:45.522Z,58.28
2019-03-23T01:23:46.122Z,58.57
2019-03-23T01:23:46.721Z,58.57
2019-03-23T01:23:47.321Z,58.47
2019-03-23T01:23:47.920Z,58.28
2019-03-23T01:24:42.399Z,58.00
2019-03-23T01:24:42.998Z,57.90
2019-03-23T01:24:43.601Z,58.47
2019-03-23T01:24:44.195Z,58.37
2019-03-23T01:24:44.795Z,58.00
2019-03-23T01:24:45.394Z,58.09
2019-03-23T01:24:45.996Z,58.00
2019-03-23T01:24:46.598Z,58.37
2019-03-23T01:25:40.080Z,58.28
2019-03-23T01:25:40.649Z,58.28
2019-03-23T01:25:41.248Z,58.47
2019-03-23T01:25:41.847Z,58.18
2019-03-23T01:25:42.449Z,58.28
2019-03-23T01:25:43.057Z,58.28
2019-03-23T01:25:43.647Z,58.18
2019-03-23T01:25:44.250Z,58.28
2019-03-23T01:26:37.704Z,58.00
2019-03-23T01:26:38.302Z,57.62
2019-03-23T01:26:38.901Z,58.57
2019-03-23T01:26:39.501Z,58.18
2019-03-23T01:26:40.101Z,58.37
2019-03-23T01:26:40.701Z,58.28
2019-03-23T01:26:41.300Z,58.47
2019-03-23T01:26:41.901Z,58.18
2019-03-23T01:27:35.356Z,57.81
2019-03-23T01:27:35.955Z,57.81
2019-03-23T01:27:36.553Z,57.90
2019-03-23T01:27:37.153Z,57.62
2019-03-23T01:27:37.754Z,57.62
2019-03-23T01:27:38.361Z,57.62
2019-03-23T01:27:38.954Z,57.62
2019-03-23T01:27:39.553Z,57.90
2019-03-23T01:28:33.007Z,57.62
2019-03-23T01:28:33.603Z,57.62
2019-03-23T01:28:34.205Z,57.81
2019-03-23T01:28:34.804Z,57.90
2019-03-23T01:28:35.403Z,57.81
2019-03-23T01:28:36.004Z,57.81
2019-03-23T01:28:36.603Z,57.62
2019-03-23T01:28:37.202Z,57.81
2019-03-23T01:29:31.684Z,57.33
2019-03-23T01:29:32.279Z,57.24
2019-03-23T01:29:32.879Z,57.52
2019-03-23T01:29:33.479Z,57.90
2019-03-23T01:29:34.080Z,57.90
2019-03-23T01:29:34.678Z,57.90
2019-03-23T01:29:35.276Z,57.90
2019-03-23T01:29:35.878Z,57.33
2019-03-23T01:30:29.335Z,57.81
2019-03-23T01:30:29.932Z,57.24
2019-03-23T01:30:30.531Z,57.90
2019-03-23T01:30:31.132Z,57.90
2019-03-23T01:30:31.736Z,57.62
2019-03-23T01:30:32.332Z,57.81
2019-03-23T01:30:32.933Z,57.90
2019-03-23T01:30:33.531Z,57.81
2019-03-23T01:31:27.015Z,57.43
2019-03-23T01:31:27.582Z,58.00
2019-03-23T01:31:28.185Z,57.81
2019-03-23T01:31:28.782Z,57.52
2019-03-23T01:31:29.383Z,58.00
2019-03-23T01:31:29.983Z,57.71
2019-03-23T01:31:30.583Z,57.52
2019-03-23T01:31:31.183Z,57.52
2019-03-23T01:32:25.661Z,57.90
2019-03-23T01:32:26.264Z,58.47
2019-03-23T01:32:26.858Z,57.90
2019-03-23T01:32:27.457Z,58.57
2019-03-23T01:32:28.059Z,58.47
2019-03-23T01:32:28.657Z,57.81
2019-03-23T01:32:29.258Z,58.57
2019-03-23T01:32:29.861Z,58.57
2019-03-23T01:33:23.343Z,58.37
2019-03-23T01:33:23.911Z,58.18
2019-03-23T01:33:24.510Z,58.57
2019-03-23T01:33:25.112Z,58.28
2019-03-23T01:33:25.711Z,58.37
2019-03-23T01:33:26.310Z,58.28
2019-03-23T01:33:26.910Z,58.28
2019-03-23T01:33:27.509Z,58.09
2019-03-23T01:34:21.990Z,58.47
2019-03-23T01:34:22.589Z,57.90
2019-03-23T01:34:23.189Z,57.90
2019-03-23T01:34:23.785Z,58.09
2019-03-23T01:34:24.385Z,58.37
2019-03-23T01:34:24.987Z,58.57
2019-03-23T01:34:25.584Z,58.57
2019-03-23T01:34:26.185Z,58.28
2019-03-23T01:35:20.674Z,58.57
2019-03-23T01:35:21.261Z,58.00
2019-03-23T01:35:21.861Z,58.00
2019-03-23T01:35:22.462Z,57.81
2019-03-23T01:35:23.061Z,58.47
2019-03-23T01:35:23.662Z,57.81
2019-03-23T01:35:24.260Z,58.00
2019-03-23T01:35:24.862Z,57.90
2019-03-23T01:36:18.345Z,57.71
2019-03-23T01:36:18.914Z,57.90
2019-03-23T01:36:19.516Z,57.81
2019-03-23T01:36:20.114Z,57.81
2019-03-23T01:36:20.713Z,57.90
2019-03-23T01:36:21.314Z,57.62
2019-03-23T01:36:21.913Z,57.81
2019-03-23T01:36:22.513Z,57.81
2019-03-23T01:37:16.993Z,57.90
2019-03-23T01:37:17.589Z,57.90
2019-03-23T01:37:18.189Z,57.71
2019-03-23T01:37:18.787Z,57.90
2019-03-23T01:37:19.388Z,57.71
2019-03-23T01:37:19.990Z,57.90
2019-03-23T01:37:20.593Z,57.71
2019-03-23T01:37:21.187Z,57.62
2019-03-23T01:38:14.645Z,58.47
2019-03-23T01:38:15.244Z,58.47
2019-03-23T01:38:15.841Z,58.57
2019-03-23T01:38:16.442Z,58.47
2019-03-23T01:38:17.041Z,58.00
2019-03-23T01:38:17.641Z,58.00
2019-03-23T01:38:18.241Z,58.00
2019-03-23T01:38:18.841Z,58.47
2019-03-23T01:39:12.296Z,58.09
2019-03-23T01:39:12.892Z,57.90
2019-03-23T01:39:13.493Z,57.81
2019-03-23T01:39:14.093Z,57.90
2019-03-23T01:39:14.695Z,57.71
2019-03-23T01:39:15.294Z,57.81
2019-03-23T01:39:15.893Z,57.71
2019-03-23T01:39:16.492Z,57.90
2019-03-23T01:40:09.949Z,57.71
2019-03-23T01:40:10.546Z,57.62
2019-03-23T01:40:11.145Z,58.18
2019-03-23T01:40:11.744Z,57.62
2019-03-23T01:40:12.344Z,57.62
2019-03-23T01:40:12.948Z,57.90
2019-03-23T01:40:13.543Z,57.81
2019-03-23T01:40:14.142Z,57.90
2019-03-23T01:41:08.653Z,57.71
2019-03-23T01:41:09.221Z,57.90
2019-03-23T01:41:09.819Z,57.90
2019-03-23T01:41:10.424Z,57.71
2019-03-23T01:41:11.021Z,57.71
2019-03-23T01:41:11.620Z,57.81
2019-03-23T01:41:12.219Z,57.90
2019-03-23T01:41:12.866Z,57.90
2019-03-23T01:42:06.275Z,58.18
2019-03-23T01:42:06.873Z,58.28
2019-03-23T01:42:07.474Z,58.28
2019-03-23T01:42:08.073Z,58.09
2019-03-23T01:42:08.673Z,58.28
2019-03-23T01:42:09.273Z,58.18
2019-03-23T01:42:09.872Z,58.37
2019-03-23T01:42:10.471Z,58.28
2019-03-23T01:43:04.954Z,58.76
2019-03-23T01:43:05.548Z,58.09
2019-03-23T01:43:06.149Z,58.09
2019-03-23T01:43:06.746Z,58.18
2019-03-23T01:43:07.347Z,58.09
2019-03-23T01:43:07.950Z,58.85
2019-03-23T01:43:08.546Z,58.37
2019-03-23T01:43:09.151Z,58.09
2019-03-23T01:44:02.605Z,58.28
2019-03-23T01:44:03.201Z,58.28
2019-03-23T01:44:03.799Z,58.57
2019-03-23T01:44:04.401Z,58.47
2019-03-23T01:44:05.007Z,58.28
2019-03-23T01:44:05.600Z,58.37
2019-03-23T01:44:06.200Z,58.57
2019-03-23T01:44:06.800Z,58.28
2019-03-23T01:45:01.283Z,58.47
2019-03-23T01:45:01.877Z,58.47
2019-03-23T01:45:02.475Z,58.47
2019-03-23T01:45:03.074Z,58.66
2019-03-23T01:45:03.673Z,58.47
2019-03-23T01:45:04.274Z,58.47
2019-03-23T01:45:04.873Z,58.28
2019-03-23T01:45:05.472Z,58.47
2019-03-23T01:45:59.978Z,58.57
2019-03-23T01:46:00.550Z,58.37
2019-03-23T01:46:01.150Z,58.47
2019-03-23T01:46:01.749Z,58.57
2019-03-23T01:46:02.351Z,58.37
2019-03-23T01:46:02.950Z,58.37
2019-03-23T01:46:03.549Z,58.37
2019-03-23T01:46:04.150Z,58.47
2019-03-23T01:46:58.631Z,58.47
2019-03-23T01:46:59.230Z,58.47
2019-03-23T01:46:59.826Z,58.37
2019-03-23T01:47:00.429Z,58.47
2019-03-23T01:47:01.024Z,58.37
2019-03-23T01:47:01.625Z,58.57
2019-03-23T01:47:02.226Z,58.57
2019-03-23T01:47:02.824Z,58.57
2019-03-23T01:47:56.284Z,58.28
2019-03-23T01:47:56.880Z,58.47
2019-03-23T01:47:57.479Z,58.28
2019-03-23T01:47:58.077Z,58.18
2019-03-23T01:47:58.679Z,58.09
2019-03-23T01:47:59.281Z,58.57
2019-03-23T01:47:59.878Z,58.09
2019-03-23T01:48:00.478Z,58.09
2019-03-23T01:48:53.934Z,58.47
2019-03-23T01:48:54.532Z,58.47
2019-03-23T01:48:55.130Z,58.47
2019-03-23T01:48:55.731Z,58.37
2019-03-23T01:48:56.330Z,58.57
2019-03-23T01:48:56.932Z,58.47
2019-03-23T01:48:57.530Z,58.37
2019-03-23T01:48:58.132Z,58.37
2019-03-23T01:49:52.610Z,58.47
2019-03-23T01:49:53.206Z,58.37
2019-03-23T01:49:53.805Z,58.37
2019-03-23T01:49:54.412Z,58.47
2019-03-23T01:49:55.005Z,58.47
2019-03-23T01:49:55.606Z,58.28
2019-03-23T01:49:56.205Z,58.28
2019-03-23T01:49:56.804Z,58.47
2019-03-23T01:50:50.288Z,58.28
2019-03-23T01:50:50.860Z,58.28
2019-03-23T01:50:51.459Z,58.47
2019-03-23T01:50:52.058Z,58.18
2019-03-23T01:50:52.663Z,58.28
2019-03-23T01:50:53.778Z,58.28
2019-03-23T01:50:53.855Z,58.28
2019-03-23T01:50:54.455Z,58.18
2019-03-23T01:51:47.913Z,58.28
2019-03-23T01:51:48.510Z,58.37
2019-03-23T01:51:49.109Z,58.28
2019-03-23T01:51:49.710Z,58.37
2019-03-23T01:51:50.310Z,58.40
2019-03-23T01:51:50.911Z,58.37
2019-03-23T01:51:51.509Z,58.28
2019-03-23T01:51:52.110Z,58.47
2019-03-23T01:52:46.588Z,58.66
2019-03-23T01:52:47.185Z,58.66
2019-03-23T01:52:47.784Z,58.09
2019-03-23T01:52:48.383Z,58.09
2019-03-23T01:52:48.984Z,58.18
2019-03-23T01:52:49.582Z,58.69
2019-03-23T01:52:50.184Z,58.47
2019-03-23T01:52:50.782Z,58.57
2019-03-23T01:53:45.263Z,59.17
2019-03-23T01:53:45.860Z,59.23
2019-03-23T01:53:46.459Z,59.14
2019-03-23T01:53:47.063Z,59.14
2019-03-23T01:53:47.661Z,59.14
2019-03-23T01:53:48.259Z,59.17
2019-03-23T01:53:48.859Z,58.85
2019-03-23T01:53:49.460Z,59.14
2019-03-23T01:54:42.917Z,59.99
2019-03-23T01:54:43.518Z,59.99
2019-03-23T01:54:44.112Z,60.09
2019-03-23T01:54:44.713Z,59.99
2019-03-23T01:54:45.311Z,59.99
2019-03-23T01:54:45.919Z,59.93
2019-03-23T01:54:46.512Z,60.12
2019-03-23T01:54:47.111Z,60.21
2019-03-23T01:55:41.627Z,59.80
2019-03-23T01:55:42.189Z,59.42
2019-03-23T01:55:42.787Z,59.83
2019-03-23T01:55:43.387Z,59.80
2019-03-23T01:55:43.988Z,59.71
2019-03-23T01:55:44.592Z,59.52
2019-03-23T01:55:45.189Z,59.71
2019-03-23T01:55:45.789Z,59.42
2019-03-23T01:56:39.245Z,59.52
2019-03-23T01:56:39.843Z,59.52
2019-03-23T01:56:40.439Z,59.52
2019-03-23T01:56:41.040Z,59.71
2019-03-23T01:56:41.640Z,59.61
2019-03-23T01:56:42.240Z,59.61
2019-03-23T01:56:42.840Z,59.71
2019-03-23T01:56:43.439Z,59.80
2019-03-23T01:57:36.894Z,59.71
2019-03-23T01:57:37.496Z,59.71
2019-03-23T01:57:38.091Z,59.90
2019-03-23T01:57:38.692Z,59.80
2019-03-23T01:57:39.296Z,59.71
2019-03-23T01:57:39.890Z,59.71
2019-03-23T01:57:40.492Z,59.71
2019-03-23T01:57:41.092Z,59.80
2019-03-23T01:58:35.574Z,60.09
2019-03-23T01:58:36.168Z,60.18
2019-03-23T01:58:36.770Z,60.18
2019-03-23T01:58:37.366Z,60.18
2019-03-23T01:58:37.965Z,60.18
2019-03-23T01:58:38.566Z,60.28
2019-03-23T01:58:39.165Z,60.18
2019-03-23T01:58:39.769Z,60.18
2019-03-23T01:59:33.222Z,60.18
2019-03-23T01:59:33.821Z,60.18
2019-03-23T01:59:34.419Z,60.12
2019-03-23T01:59:35.018Z,59.93
2019-03-23T01:59:35.618Z,60.28
2019-03-23T01:59:36.219Z,60.18
2019-03-23T01:59:36.819Z,60.18
2019-03-23T01:59:37.420Z,60.28
2019-03-23T02:00:30.878Z,60.09
2019-03-23T02:00:31.471Z,60.28
2019-03-23T02:00:32.070Z,60.21
2019-03-23T02:00:32.670Z,60.28
2019-03-23T02:00:33.307Z,60.28